Time;durP1;ratioP1;P1;durP2;ratioP2;P2;SDS_P1;SDS_P2;PMS_P1;PMS_P2;Temp;Humidity;BMP_temperature;BMP_pressure;BME280_temperature;BME280_humidity;BME280_pressure;Samples;Min_cycle;Max_cycle;Signal;HPM_P1;HPM_P2
2022/09/17 00:01:16;;;;;;;6.72;3.75;;;;;;;11.20;62.91;96500.44;6101383;29;19931;-69
2022/09/17 00:04:17;;;;;;;4.45;3.75;;;;;;;11.21;62.96;96502.16;6101459;29;20055;-69
2022/09/17 00:07:23;;;;;;;6.53;3.60;;;;;;;11.10;63.21;96477.56;6100676;29;20229;-68
2022/09/17 00:10:25;;;;;;;5.45;4.13;;;;;;;11.39;63.10;96510.47;6100699;29;20056;-69
2022/09/17 00:13:31;;;;;;;4.00;3.42;;;;;;;11.40;63.23;96532.41;6101106;29;20060;-69
2022/09/17 00:16:48;;;;;;;6.47;3.65;;;;;;;11.39;63.59;96546.53;6101049;29;20047;-69
2022/09/17 00:19:49;;;;;;;5.68;4.13;;;;;;;11.15;64.33;96539.47;6105319;29;20062;-68
2022/09/17 00:22:51;;;;;;;6.47;4.00;;;;;;;10.95;65.15;96537.41;6104390;29;20052;-69
2022/09/17 00:25:53;;;;;;;7.95;4.90;;;;;;;10.62;66.47;96535.41;6104633;29;20598;-68
2022/09/17 00:28:58;;;;;;;5.93;4.75;;;;;;;10.36;67.89;96539.84;6105235;29;20044;-68
2022/09/17 00:32:00;;;;;;;8.70;5.60;;;;;;;10.15;68.90;96537.72;6105047;29;20105;-68
2022/09/17 00:35:05;;;;;;;6.22;4.90;;;;;;;10.06;70.12;96535.72;6104862;29;20383;-68
2022/09/17 00:38:09;;;;;;;9.18;4.75;;;;;;;9.94;70.92;96528.69;6104895;29;20490;-68
2022/09/17 00:41:13;;;;;;;6.13;4.85;;;;;;;9.92;71.24;96535.81;6104557;29;20064;-69
2022/09/17 00:44:40;;;;;;;8.35;5.20;;;;;;;10.02;71.92;96539.47;6104423;29;20048;-68
2022/09/17 00:47:46;;;;;;;6.68;5.07;;;;;;;10.05;72.34;96544.56;6104466;29;20040;-68
2022/09/17 00:50:51;;;;;;;6.32;4.85;;;;;;;10.06;72.96;96543.59;6104463;29;20075;-68
2022/09/17 00:53:54;;;;;;;5.38;4.53;;;;;;;9.97;73.37;96534.56;6104074;29;20052;-68
2022/09/17 00:56:58;;;;;;;5.78;4.85;;;;;;;10.01;73.60;96529.94;6104517;29;20040;-68
2022/09/17 00:59:59;;;;;;;6.15;4.60;;;;;;;10.12;73.94;96527.41;6103950;29;20399;-68
2022/09/17 01:03:02;;;;;;;6.38;4.47;;;;;;;10.04;74.40;96524.47;6104246;29;20052;-68
2022/09/17 01:06:30;;;;;;;6.05;5.22;;;;;;;10.15;74.67;96523.72;6104000;29;20554;-68
2022/09/17 01:09:52;;;;;;;6.38;4.45;;;;;;;10.13;75.21;96518.56;6104174;29;20044;-67
2022/09/17 01:13:18;;;;;;;6.63;5.15;;;;;;;10.20;75.50;96517.22;6103497;29;20056;-70
2022/09/17 01:16:42;;;;;;;6.15;5.50;;;;;;;10.24;75.62;96523.94;6104127;29;20048;-68
2022/09/17 01:20:21;;;;;;;5.70;4.78;;;;;;;10.24;76.09;96531.81;6085227;29;20043;-69
2022/09/17 01:23:40;;;;;;;5.47;4.60;;;;;;;10.24;76.27;96520.47;6103906;29;20052;-69
2022/09/17 01:27:18;;;;;;;7.35;4.93;;;;;;;10.44;76.06;96524.38;6103816;29;20048;-68
2022/09/17 01:30:56;;;;;;;16.70;11.27;;;;;;;10.37;76.46;96516.06;6102910;29;20043;-68
2022/09/17 01:34:19;;;;;;;11.20;7.28;;;;;;;10.38;76.85;96522.16;6102327;29;20051;-69
2022/09/17 01:37:26;;;;;;;7.13;5.55;;;;;;;10.43;76.54;96520.91;6103546;29;20580;-69
2022/09/17 01:41:00;;;;;;;7.97;5.72;;;;;;;10.46;76.40;96519.84;6103568;29;20111;-68
2022/09/17 01:44:23;;;;;;;8.52;5.13;;;;;;;10.56;76.71;96526.16;6094716;29;20051;-68
2022/09/17 01:47:37;;;;;;;7.88;5.25;;;;;;;10.64;76.32;96529.06;6103448;29;20055;-68
2022/09/17 01:50:48;;;;;;;7.43;5.38;;;;;;;10.63;76.65;96537.91;6103105;29;20056;-68
2022/09/17 01:53:58;;;;;;;9.02;5.55;;;;;;;10.70;76.45;96539.19;6102817;29;20048;-68
2022/09/17 01:57:02;;;;;;;5.72;4.70;;;;;;;10.70;76.28;96533.91;6103007;29;20430;-67
2022/09/17 02:00:11;;;;;;;8.25;5.13;;;;;;;10.77;76.24;96542.22;6102851;29;20112;-67
2022/09/17 02:03:29;;;;;;;6.82;5.50;;;;;;;10.80;75.99;96536.72;6103161;29;20063;-68
2022/09/17 02:06:37;;;;;;;7.85;6.10;;;;;;;10.89;75.89;96537.84;6102888;29;20079;-67
2022/09/17 02:09:56;;;;;;;6.93;5.22;;;;;;;10.87;76.11;96545.00;6100982;29;20430;-68
2022/09/17 02:13:13;;;;;;;6.40;5.05;;;;;;;10.93;75.92;96547.22;6102507;29;20594;-69
2022/09/17 02:16:24;;;;;;;4.35;3.95;;;;;;;10.96;75.85;96550.47;6102534;29;20139;-69
2022/09/17 02:19:32;;;;;;;7.28;4.70;;;;;;;10.97;75.79;96556.59;6102620;29;20506;-70
2022/09/17 02:22:37;;;;;;;5.80;4.75;;;;;;;10.99;75.52;96549.41;6102358;29;20076;-70
2022/09/17 02:25:51;;;;;;;4.50;4.10;;;;;;;10.99;75.45;96544.16;6102088;29;20051;-70
2022/09/17 02:29:04;;;;;;;5.20;4.25;;;;;;;10.94;75.33;96546.28;6102399;29;20058;-69
2022/09/17 02:32:11;;;;;;;6.35;3.92;;;;;;;11.01;75.20;96547.50;6102287;29;20522;-70
2022/09/17 02:35:13;;;;;;;6.05;4.50;;;;;;;11.04;75.24;96551.72;6101914;29;20060;-70
2022/09/17 02:38:28;;;;;;;5.10;4.25;;;;;;;11.12;74.95;96552.84;6102148;29;20059;-70
2022/09/17 02:41:54;;;;;;;6.60;4.43;;;;;;;11.22;74.64;96553.03;6101979;29;20066;-70
2022/09/17 02:45:13;;;;;;;5.78;4.07;;;;;;;11.21;74.80;96557.47;6102146;29;20044;-70
2022/09/17 02:48:20;;;;;;;6.22;4.03;;;;;;;11.26;74.60;96564.19;6102041;29;20510;-69
2022/09/17 02:51:30;;;;;;;5.32;3.92;;;;;;;11.31;74.47;96562.06;6101814;29;20188;-68
2022/09/17 02:54:41;;;;;;;5.32;4.07;;;;;;;11.35;74.17;96576.66;6101831;29;20054;-69
2022/09/17 02:57:59;;;;;;;5.35;4.47;;;;;;;11.36;74.03;96567.84;6102176;29;20055;-68
2022/09/17 03:01:13;;;;;;;7.45;4.15;;;;;;;11.38;73.94;96571.16;6101729;29;20536;-69
2022/09/17 03:04:21;;;;;;;3.90;3.55;;;;;;;11.35;74.02;96571.41;6100391;29;20048;-68
2022/09/17 03:07:28;;;;;;;5.25;3.80;;;;;;;11.42;74.15;96577.91;6101817;29;20135;-68
2022/09/17 03:10:32;;;;;;;6.63;4.07;;;;;;;11.47;73.86;96573.16;6101949;29;20052;-68
2022/09/17 03:13:39;;;;;;;6.57;4.07;;;;;;;11.53;73.55;96585.88;6101426;29;20056;-68
2022/09/17 03:16:41;;;;;;;9.90;3.95;;;;;;;11.61;73.34;96577.41;6101158;29;20431;-69
2022/09/17 03:19:45;;;;;;;5.88;4.40;;;;;;;11.67;73.00;96575.16;6101593;29;20040;-68
2022/09/17 03:22:47;;;;;;;6.03;3.42;;;;;;;11.66;73.11;96576.13;6101484;29;20199;-69
2022/09/17 03:25:48;;;;;;;8.30;4.53;;;;;;;11.80;72.76;96582.16;6101469;29;20433;-68
2022/09/17 03:28:49;;;;;;;5.75;4.32;;;;;;;11.90;72.36;96577.91;6101606;29;20156;-69
2022/09/17 03:31:51;;;;;;;5.28;3.80;;;;;;;12.08;71.64;96576.50;6101090;29;20510;-68
2022/09/17 03:34:53;;;;;;;6.93;4.18;;;;;;;12.20;71.46;96579.19;6100833;29;20540;-68
2022/09/17 03:38:00;;;;;;;6.10;4.40;;;;;;;12.26;71.12;96576.09;6101468;29;20075;-68
2022/09/17 03:41:07;;;;;;;5.35;3.72;;;;;;;12.38;70.66;96575.16;6101652;29;20052;-69
2022/09/17 03:44:09;;;;;;;9.00;6.70;;;;;;;12.55;70.79;96576.50;6101465;29;20569;-71
2022/09/17 03:47:11;;;;;;;6.70;4.65;;;;;;;12.69;70.14;96575.41;6100809;29;20135;-70
2022/09/17 03:50:15;;;;;;;9.02;5.38;;;;;;;12.78;70.04;96575.53;6101365;29;20046;-68
2022/09/17 03:53:21;;;;;;;5.07;4.45;;;;;;;12.71;69.84;96584.03;6103647;29;20466;-68
2022/09/17 03:56:22;;;;;;;5.85;4.15;;;;;;;12.55;70.27;96579.97;6105589;29;20052;-69
2022/09/17 03:59:24;;;;;;;5.75;4.30;;;;;;;12.56;70.03;96580.78;6105210;29;20050;-69
2022/09/17 04:02:26;;;;;;;7.25;4.80;;;;;;;12.43;70.58;96580.09;6105952;29;20051;-69
2022/09/17 04:05:28;;;;;;;5.45;4.30;;;;;;;12.45;70.42;96573.72;6105654;29;20107;-69
2022/09/17 04:08:31;;;;;;;8.18;6.03;;;;;;;12.33;71.02;96580.78;6105611;29;20048;-67
2022/09/17 04:11:37;;;;;;;7.70;5.07;;;;;;;12.24;71.47;96585.91;6104932;29;20635;-70
2022/09/17 04:14:39;;;;;;;5.55;4.75;;;;;;;12.24;71.71;96588.56;6105174;29;20055;-69
2022/09/17 04:17:43;;;;;;;;;;;;;;;12.31;71.14;96592.41;6105696;29;20056;-69
2022/09/17 04:20:47;;;;;;;7.32;4.75;;;;;;;12.15;71.82;96581.34;6105134;29;20018;-68
2022/09/17 04:23:53;;;;;;;8.05;4.68;;;;;;;12.07;72.64;96589.84;6105104;29;20075;-68
2022/09/17 04:26:54;;;;;;;6.40;5.03;;;;;;;12.03;73.06;96594.50;6104759;29;20055;-68
2022/09/17 04:30:00;;;;;;;7.47;4.80;;;;;;;12.24;72.94;96591.19;6104788;29;20407;-68
2022/09/17 04:33:04;;;;;;;6.03;4.53;;;;;;;12.16;73.13;96585.66;6104659;29;20063;-70
2022/09/17 04:36:05;;;;;;;6.57;4.55;;;;;;;12.19;73.50;96577.50;6104798;29;20051;-69
2022/09/17 04:39:10;;;;;;;5.05;3.70;;;;;;;12.29;73.52;96583.78;6104663;29;20518;-69
2022/09/17 04:42:12;;;;;;;6.88;5.15;;;;;;;12.39;72.93;96581.25;6104541;29;20430;-69
2022/09/17 04:45:18;;;;;;;7.07;5.40;;;;;;;12.50;73.32;96590.03;6104574;29;20044;-68
2022/09/17 04:48:22;;;;;;;6.90;4.82;;;;;;;12.28;73.82;96568.88;6104587;29;20048;-68
2022/09/17 04:51:26;;;;;;;5.57;4.90;;;;;;;12.48;73.86;96591.97;6103264;29;20196;-68
2022/09/17 04:54:29;;;;;;;10.88;6.20;;;;;;;12.46;74.20;96585.97;6104472;29;20048;-68
2022/09/17 04:57:31;;;;;;;7.22;5.80;;;;;;;12.46;74.30;96585.13;6104053;29;20066;-68
2022/09/17 05:00:41;;;;;;;7.35;5.50;;;;;;;12.47;74.67;96582.34;6104441;29;20040;-68
2022/09/17 05:03:44;;;;;;;7.25;4.72;;;;;;;12.40;75.26;96583.81;6104106;29;20040;-68
2022/09/17 05:06:46;;;;;;;8.90;5.10;;;;;;;12.52;75.16;96580.19;6104003;29;20055;-70
2022/09/17 05:09:50;;;;;;;;;;;;;;;12.61;74.74;96588.38;6104359;29;20510;-69
2022/09/17 05:12:53;;;;;;;7.25;4.88;;;;;;;12.62;75.52;96592.69;6103457;29;20373;-69
2022/09/17 05:15:56;;;;;;;7.32;5.35;;;;;;;12.56;76.03;96597.47;6103843;29;20051;-69
2022/09/17 05:19:01;;;;;;;7.38;4.45;;;;;;;12.59;76.41;96586.66;6103898;29;20530;-69
2022/09/17 05:22:04;;;;;;;6.70;5.82;;;;;;;12.73;76.30;96593.53;6103612;29;20224;-69
2022/09/17 05:25:10;;;;;;;6.60;4.82;;;;;;;12.77;76.55;96594.16;6103808;29;20044;-69
2022/09/17 05:28:13;;;;;;;7.82;5.65;;;;;;;12.95;76.59;96590.03;6103750;29;20421;-69
2022/09/17 05:31:19;;;;;;;6.53;5.60;;;;;;;12.90;77.11;96588.72;6103206;29;20048;-68
2022/09/17 05:34:24;;;;;;;7.25;6.43;;;;;;;13.02;77.25;96593.03;6103488;29;20052;-68
2022/09/17 05:37:26;;;;;;;5.78;4.80;;;;;;;12.97;77.59;96601.34;6103399;29;20077;-69
2022/09/17 05:40:31;;;;;;;7.75;5.53;;;;;;;13.03;77.94;96595.56;6103267;29;20040;-68
2022/09/17 05:43:37;;;;;;;7.25;5.80;;;;;;;12.91;78.46;96601.81;6103044;29;20047;-67
2022/09/17 05:46:41;;;;;;;6.05;5.45;;;;;;;12.87;78.99;96605.66;6103043;29;20096;-68
2022/09/17 05:49:45;;;;;;;8.20;6.65;;;;;;;12.93;79.23;96604.31;6103332;29;20418;-69
2022/09/17 05:52:47;;;;;;;7.85;6.90;;;;;;;12.84;79.88;96611.16;6102686;29;20056;-68
2022/09/17 05:55:55;;;;;;;;;;;;;;;13.02;79.83;96608.88;6103178;29;20044;-69
2022/09/17 05:58:56;;;;;;;8.25;5.82;;;;;;;12.96;80.19;96610.19;6102770;29;19923;-68
2022/09/17 06:01:58;;;;;;;9.98;7.13;;;;;;;12.98;80.41;96605.66;6102835;29;20044;-68
2022/09/17 06:05:00;;;;;;;8.68;6.93;;;;;;;13.01;80.79;96602.75;6102793;29;20600;-68
2022/09/17 06:08:08;;;;;;;8.85;6.78;;;;;;;13.06;80.84;96599.78;6102795;29;20044;-68
2022/09/17 06:11:10;;;;;;;9.00;8.05;;;;;;;13.06;81.05;96601.56;6102453;29;20058;-67
2022/09/17 06:14:11;;;;;;;8.85;7.80;;;;;;;13.06;81.43;96606.84;6102531;29;20111;-69
2022/09/17 06:17:13;;;;;;;10.35;7.43;;;;;;;13.12;81.36;96609.00;6101764;29;20425;-68
2022/09/17 06:20:15;;;;;;;10.63;8.40;;;;;;;13.16;81.37;96610.44;6102431;29;20051;-69
2022/09/17 06:23:18;;;;;;;9.00;7.70;;;;;;;13.10;81.95;96610.91;6101876;29;20456;-69
2022/09/17 06:26:22;;;;;;;10.18;7.70;;;;;;;13.31;81.75;96608.44;6102424;29;20143;-68
2022/09/17 06:29:26;;;;;;;9.38;6.95;;;;;;;13.29;81.99;96605.88;6102373;29;20422;-68
2022/09/17 06:32:28;;;;;;;10.35;6.90;;;;;;;13.29;81.59;96602.41;6102502;29;20052;-69
2022/09/17 06:35:30;;;;;;;10.18;7.90;;;;;;;13.22;81.64;96607.31;6101851;29;20115;-69
2022/09/17 06:38:35;;;;;;;10.95;8.20;;;;;;;13.37;81.17;96608.75;6101614;29;20048;-68
2022/09/17 06:41:45;;;;;;;8.80;7.70;;;;;;;13.36;81.46;96599.16;6100904;29;20052;-68
2022/09/17 06:44:47;;;;;;;12.60;7.93;;;;;;;13.42;81.38;96606.59;6102158;29;20407;-68
2022/09/17 06:47:48;;;;;;;10.60;6.93;;;;;;;13.56;80.79;96607.25;6101653;29;20498;-69
2022/09/17 06:50:53;;;;;;;10.32;8.38;;;;;;;13.63;80.95;96608.47;6101989;29;20626;-69
2022/09/17 06:53:56;;;;;;;10.10;8.00;;;;;;;13.72;80.34;96604.22;6101684;29;20134;-69
2022/09/17 06:57:00;;;;;;;12.50;9.50;;;;;;;13.79;79.73;96614.19;6101095;29;20052;-69
2022/09/17 07:00:06;;;;;;;12.82;8.88;;;;;;;13.84;80.09;96606.72;6101755;29;20040;-69
2022/09/17 07:03:10;;;;;;;11.32;8.60;;;;;;;13.96;79.77;96614.59;6101548;29;20048;-69
2022/09/17 07:06:11;;;;;;;10.40;8.18;;;;;;;14.01;79.67;96617.69;6102169;29;20075;-69
2022/09/17 07:09:17;;;;;;;;;;;;;;;14.21;79.52;96616.03;6101995;29;20414;-69
2022/09/17 07:12:19;;;;;;;11.68;8.40;;;;;;;13.99;79.92;96609.06;6101326;29;19927;-68
2022/09/17 07:15:23;;;;;;;14.57;10.38;;;;;;;13.95;80.36;96607.63;6101215;29;20505;-68
2022/09/17 07:18:27;;;;;;;11.98;9.98;;;;;;;14.11;80.39;96613.31;6101590;29;20052;-69
2022/09/17 07:21:31;;;;;;;12.23;9.73;;;;;;;14.04;80.65;96622.72;6101353;29;20172;-68
2022/09/17 07:24:33;;;;;;;;;;;;;;;14.02;81.10;96619.38;6101931;29;20522;-68
2022/09/17 07:27:39;;;;;;;14.07;9.70;;;;;;;14.08;81.52;96616.22;6102559;29;19923;-69
2022/09/17 07:30:40;;;;;;;14.57;10.32;;;;;;;14.24;81.37;96613.97;6106174;29;20142;-70
2022/09/17 07:33:48;;;;;;;15.15;11.80;;;;;;;14.49;80.61;96623.34;6106274;29;20044;-69
2022/09/17 07:36:51;;;;;;;14.15;10.60;;;;;;;14.78;80.00;96618.25;6106220;29;20510;-68
2022/09/17 07:39:55;;;;;;;15.38;10.68;;;;;;;15.02;78.81;96619.75;6106237;29;20048;-68
2022/09/17 07:42:57;;;;;;;15.93;10.75;;;;;;;15.18;77.41;96624.56;6105906;29;20040;-68
2022/09/17 07:46:01;;;;;;;10.40;8.43;;;;;;;15.15;77.38;96623.00;6105453;29;20052;-69
2022/09/17 07:49:03;;;;;;;14.60;9.57;;;;;;;15.07;76.71;96630.78;6104239;29;20047;-68
2022/09/17 07:52:07;;;;;;;9.85;8.40;;;;;;;14.85;77.55;96626.50;6105900;29;20093;-70
2022/09/17 07:55:09;;;;;;;12.85;8.82;;;;;;;14.94;77.86;96630.16;6105527;29;20060;-69
2022/09/17 07:58:10;;;;;;;14.07;9.55;;;;;;;14.94;77.30;96622.22;6104290;29;20466;-70
2022/09/17 08:01:15;;;;;;;;;;;;;;;14.98;77.48;96623.63;6105960;29;20043;-70
2022/09/17 08:04:19;;;;;;;10.57;8.45;;;;;;;14.98;77.62;96624.47;6105290;29;20407;-68
2022/09/17 08:07:21;;;;;;;10.93;8.05;;;;;;;15.13;76.60;96632.91;6105372;29;20123;-69
2022/09/17 08:10:25;;;;;;;;;;;;;;;15.22;76.68;96634.72;6105761;29;20138;-69
2022/09/17 08:13:29;;;;;;;12.18;8.40;;;;;;;15.08;76.87;96627.16;6104172;29;20421;-71
2022/09/17 08:16:30;;;;;;;;;;;;;;;15.33;76.54;96627.66;6103302;29;20058;-70
2022/09/17 08:19:33;;;;;;;12.95;10.05;;;;;;;15.31;76.16;96626.94;6103822;29;20385;-69
2022/09/17 08:22:39;;;;;;;12.55;8.35;;;;;;;15.36;76.94;96622.09;6102894;29;20506;-70
2022/09/17 08:25:43;;;;;;;10.93;8.18;;;;;;;15.55;76.13;96627.44;6103578;29;20075;-70
2022/09/17 08:28:49;;;;;;;9.90;6.82;;;;;;;15.51;76.00;96631.31;6103704;29;20139;-69
2022/09/17 08:31:53;;;;;;;11.05;7.22;;;;;;;15.54;76.02;96636.38;6103614;29;20130;-70
2022/09/17 08:34:58;;;;;;;11.20;8.73;;;;;;;15.58;75.50;96643.09;6103025;29;20055;-69
2022/09/17 08:38:01;;;;;;;9.85;8.18;;;;;;;15.47;76.08;96638.72;6103053;29;20040;-70
2022/09/17 08:41:11;;;;;;;9.93;7.57;;;;;;;15.55;75.92;96635.41;6102992;29;20052;-68
2022/09/17 08:44:40;;;;;;;12.75;9.30;;;;;;;15.69;76.30;96637.69;6103368;29;20048;-69
2022/09/17 08:47:47;;;;;;;10.38;7.97;;;;;;;15.97;75.88;96635.22;6103089;29;20055;-69
2022/09/17 08:50:51;;;;;;;12.95;8.57;;;;;;;16.37;74.46;96634.25;6102893;29;20051;-70
2022/09/17 08:54:11;;;;;;;11.05;7.35;;;;;;;16.44;74.26;96635.31;6102914;29;20036;-69
2022/09/17 08:57:18;;;;;;;11.20;8.55;;;;;;;16.64;73.99;96632.66;6102979;29;20387;-69
2022/09/17 09:00:23;;;;;;;9.82;6.75;;;;;;;16.90;72.59;96644.38;6103019;29;20048;-69
2022/09/17 09:04:02;;;;;;;10.13;8.03;;;;;;;17.25;72.36;96640.19;6102635;29;20044;-69
2022/09/17 09:07:16;;;;;;;9.93;7.05;;;;;;;17.70;68.82;96639.41;6103149;29;20501;-68
2022/09/17 09:10:31;;;;;;;8.15;6.38;;;;;;;17.59;69.62;96642.25;6102598;29;20433;-69
2022/09/17 09:13:42;;;;;;;8.53;5.67;;;;;;;17.63;69.72;96643.63;6048388;29;1616308;-69
2022/09/17 09:16:46;;;;;;;6.35;5.15;;;;;;;17.76;69.07;96638.78;6103325;29;20487;-69
2022/09/17 09:19:52;;;;;;;8.63;5.85;;;;;;;18.00;67.19;96635.56;6103624;29;20052;-69
2022/09/17 09:22:56;;;;;;;7.60;5.53;;;;;;;18.09;67.16;96636.50;6103858;29;20486;-70
2022/09/17 09:26:13;;;;;;;8.02;5.53;;;;;;;18.14;66.88;96636.88;6103807;29;20430;-69
2022/09/17 09:29:34;;;;;;;8.30;5.30;;;;;;;18.10;66.71;96641.66;6103531;29;20044;-68
2022/09/17 09:32:59;;;;;;;8.20;5.05;;;;;;;18.32;66.32;96655.53;6103566;29;20044;-69
2022/09/17 09:36:06;;;;;;;7.65;5.35;;;;;;;18.10;66.75;96651.47;6102254;29;20059;-69
2022/09/17 09:39:29;;;;;;;7.53;6.32;;;;;;;18.07;66.76;96651.78;6103570;29;20044;-68
2022/09/17 09:42:34;;;;;;;7.82;6.18;;;;;;;17.98;67.24;96642.06;6103408;29;20040;-70
2022/09/17 09:45:52;;;;;;;8.68;6.53;;;;;;;17.92;67.80;96641.66;6103389;29;20071;-69
2022/09/17 09:48:54;;;;;;;10.57;6.70;;;;;;;17.94;67.36;96633.50;6103153;29;20097;-70
2022/09/17 09:52:11;;;;;;;8.10;7.20;;;;;;;17.96;67.66;96639.53;6101009;29;20398;-69
2022/09/17 09:55:27;;;;;;;8.70;6.85;;;;;;;17.95;67.69;96637.88;6102617;29;20545;-69
2022/09/17 09:58:40;;;;;;;9.85;6.90;;;;;;;18.00;67.46;96634.72;6102701;29;20534;-69
2022/09/17 10:01:43;;;;;;;7.47;5.80;;;;;;;17.99;67.61;96636.56;6102895;29;20048;-69
2022/09/17 10:04:46;;;;;;;;;;;;;;;18.24;65.76;96626.97;6102848;29;20138;-69
2022/09/17 10:07:50;;;;;;;7.03;6.32;;;;;;;17.93;67.07;96630.03;6102510;29;20409;-70
2022/09/17 10:11:18;;;;;;;8.57;7.65;;;;;;;17.70;68.13;96634.06;6102484;29;20048;-69
2022/09/17 10:14:28;;;;;;;10.18;7.15;;;;;;;17.65;68.48;96636.34;6102364;29;20507;-68
2022/09/17 10:17:32;;;;;;;7.00;6.15;;;;;;;17.48;68.85;96620.19;6102763;29;20450;-69
2022/09/17 10:20:33;;;;;;;8.02;7.10;;;;;;;17.44;69.29;96613.50;6102079;29;20051;-68
2022/09/17 10:23:37;;;;;;;;;;;;;;;17.84;67.37;96620.28;6102395;29;20052;-68
2022/09/17 10:26:41;;;;;;;8.50;6.65;;;;;;;17.63;67.68;96617.84;6102074;29;19923;-68
2022/09/17 10:29:48;;;;;;;8.18;7.03;;;;;;;17.65;67.90;96620.38;6101847;29;20498;-68
2022/09/17 10:33:22;;;;;;;8.85;7.25;;;;;;;17.72;67.94;96626.78;6101995;29;20056;-69
2022/09/17 10:36:40;;;;;;;;;;;;;;;17.73;67.65;96629.28;6102038;29;20108;-70
2022/09/17 10:39:47;;;;;;;8.63;7.47;;;;;;;17.61;68.64;96625.16;6101865;29;19923;-68
2022/09/17 10:43:08;;;;;;;10.20;7.65;;;;;;;17.61;68.94;96630.50;6101429;29;20064;-70
2022/09/17 10:46:17;;;;;;;12.27;8.67;;;;;;;17.57;68.96;96620.28;6102127;29;20063;-68
2022/09/17 10:49:40;;;;;;;10.35;7.45;;;;;;;17.40;69.77;96625.41;6101778;29;20058;-68
2022/09/17 10:52:48;;;;;;;9.02;7.30;;;;;;;17.31;70.11;96630.78;6101329;29;20123;-68
2022/09/17 10:56:20;;;;;;;7.20;5.90;;;;;;;17.51;68.97;96627.88;6101230;29;20052;-69
2022/09/17 10:59:57;;;;;;;9.13;7.38;;;;;;;17.37;69.55;96628.38;6098697;29;20052;-68
2022/09/17 11:03:41;;;;;;;9.35;7.47;;;;;;;17.38;69.21;96624.75;6101454;29;20143;-69
2022/09/17 11:07:15;;;;;;;10.90;8.20;;;;;;;17.23;69.38;96620.88;6101768;29;20063;-69
2022/09/17 11:10:34;;;;;;;9.38;6.93;;;;;;;17.20;69.48;96634.47;6101420;29;20056;-69
2022/09/17 11:14:05;;;;;;;8.85;7.40;;;;;;;17.16;69.73;96622.47;6101225;29;20488;-69
2022/09/17 11:17:21;;;;;;;10.23;7.82;;;;;;;17.29;68.95;96630.91;6080874;29;20653;-69
2022/09/17 11:20:54;;;;;;;7.95;7.15;;;;;;;17.18;69.30;96631.09;6101309;29;20075;-70
2022/09/17 11:24:10;;;;;;;10.80;7.80;;;;;;;17.19;69.25;96635.47;6100174;29;20056;-70
2022/09/17 11:27:45;;;;;;;8.80;7.72;;;;;;;17.06;69.46;96635.78;6101595;29;20440;-68
2022/09/17 11:31:15;;;;;;;12.00;7.18;;;;;;;16.96;69.78;96643.78;6101514;29;20048;-68
2022/09/17 11:34:39;;;;;;;7.60;6.70;;;;;;;16.90;70.12;96647.03;6087195;29;20048;-69
2022/09/17 11:37:53;;;;;;;;;;;;;;;17.02;69.57;96635.25;6101877;29;20391;-69
2022/09/17 11:40:57;;;;;;;10.10;7.63;;;;;;;16.83;70.18;96645.94;6100790;29;19923;-70
2022/09/17 11:44:19;;;;;;;8.70;7.50;;;;;;;16.78;70.19;96648.16;6101444;29;20056;-70
2022/09/17 11:47:44;;;;;;;8.73;6.80;;;;;;;16.76;70.75;96644.81;6100881;29;20705;-68
2022/09/17 11:51:11;;;;;;;7.85;5.90;;;;;;;16.80;70.93;96646.22;6101049;29;20044;-69
2022/09/17 11:54:21;;;;;;;7.85;6.88;;;;;;;16.90;70.69;96647.03;6100824;29;20060;-69
2022/09/17 11:57:31;;;;;;;8.75;7.10;;;;;;;17.00;70.53;96653.16;6100633;29;20566;-69
2022/09/17 12:00:44;;;;;;;8.90;6.60;;;;;;;17.16;70.04;96646.38;6101129;29;20048;-68
2022/09/17 12:03:58;;;;;;;8.00;6.32;;;;;;;17.26;69.57;96649.84;6100993;29;20044;-69
2022/09/17 12:07:15;;;;;;;8.07;6.13;;;;;;;17.38;68.90;96656.66;6100937;29;20048;-69
2022/09/17 12:10:28;;;;;;;9.43;6.63;;;;;;;17.32;69.38;96651.91;6100983;29;20056;-69
2022/09/17 12:13:38;;;;;;;7.80;6.13;;;;;;;17.26;69.20;96648.00;6101731;29;20521;-69
2022/09/17 12:16:48;;;;;;;6.90;5.72;;;;;;;17.30;69.09;96658.38;6105309;29;20044;-69
2022/09/17 12:19:56;;;;;;;5.30;4.80;;;;;;;17.15;69.58;96664.13;6104702;29;20434;-70
2022/09/17 12:23:05;;;;;;;5.18;4.68;;;;;;;17.24;68.93;96659.78;6105343;29;20151;-69
2022/09/17 12:26:17;;;;;;;6.20;5.60;;;;;;;17.05;69.89;96680.13;6105013;29;20044;-68
2022/09/17 12:29:29;;;;;;;6.10;5.43;;;;;;;16.92;70.39;96668.97;6104918;29;20044;-68
2022/09/17 12:32:38;;;;;;;6.90;5.68;;;;;;;16.71;70.74;96650.53;6104749;29;20052;-69
2022/09/17 12:35:45;;;;;;;5.57;4.75;;;;;;;16.84;70.23;96674.16;6104904;29;20071;-69
2022/09/17 12:39:17;;;;;;;5.57;4.93;;;;;;;16.76;70.60;96680.22;6104564;29;20422;-69
2022/09/17 12:42:25;;;;;;;7.10;4.68;;;;;;;16.79;70.32;96692.38;6104962;29;20048;-68
2022/09/17 12:45:32;;;;;;;4.75;3.92;;;;;;;16.69;70.58;96691.50;6104563;29;20055;-69
2022/09/17 12:48:37;;;;;;;6.50;4.85;;;;;;;16.31;72.22;96693.22;6103623;29;20060;-68
2022/09/17 12:52:02;;;;;;;6.50;3.83;;;;;;;16.10;73.17;96688.84;6104439;29;20434;-68
2022/09/17 12:55:24;;;;;;;5.63;3.65;;;;;;;16.02;73.15;96688.72;6104157;29;20044;-68
2022/09/17 12:58:45;;;;;;;4.43;3.83;;;;;;;16.00;72.68;96690.66;6104153;29;20055;-68
2022/09/17 13:02:11;;;;;;;6.55;2.97;;;;;;;16.22;71.94;96699.34;6104108;29;20052;-68
2022/09/17 13:05:29;;;;;;;4.90;3.22;;;;;;;16.28;71.27;96704.13;6102630;29;20143;-69
2022/09/17 13:09:10;;;;;;;5.93;3.58;;;;;;;16.30;71.18;96696.81;6104004;29;20052;-69
2022/09/17 13:12:29;;;;;;;5.72;4.20;;;;;;;16.27;71.62;96691.81;6103769;29;20058;-68
2022/09/17 13:15:43;;;;;;;6.00;4.47;;;;;;;16.20;71.91;96706.63;6104010;29;20142;-68
2022/09/17 13:19:03;;;;;;;6.30;4.20;;;;;;;16.23;71.81;96709.00;6103676;29;20155;-68
2022/09/17 13:22:16;;;;;;;5.68;4.38;;;;;;;16.22;71.84;96709.97;6103819;29;20505;-69
2022/09/17 13:25:20;;;;;;;4.95;3.80;;;;;;;16.24;71.78;96681.47;6102871;29;20052;-69
2022/09/17 13:28:37;;;;;;;9.23;4.72;;;;;;;16.20;72.51;96701.31;6102446;29;20056;-67
2022/09/17 13:31:43;;;;;;;6.95;3.97;;;;;;;16.26;72.12;96706.06;6103219;29;20048;-70
2022/09/17 13:34:49;;;;;;;6.63;4.03;;;;;;;16.22;72.41;96709.97;6103546;29;20040;-69
2022/09/17 13:37:51;;;;;;;4.88;4.38;;;;;;;16.23;72.67;96716.97;6103060;29;20541;-69
2022/09/17 13:41:20;;;;;;;4.72;2.95;;;;;;;16.24;72.90;96721.28;6103230;29;20485;-68
2022/09/17 13:44:22;;;;;;;4.97;4.22;;;;;;;16.05;73.35;96730.91;6103016;29;20048;-68
2022/09/17 13:47:59;;;;;;;4.15;3.10;;;;;;;16.13;73.49;96727.56;6103220;29;20402;-68
2022/09/17 13:51:31;;;;;;;3.22;2.92;;;;;;;16.01;73.73;96728.66;6103251;29;20048;-70
2022/09/17 13:54:41;;;;;;;3.95;2.38;;;;;;;16.03;73.50;96727.56;6102946;29;20048;-69
2022/09/17 13:57:50;;;;;;;3.92;3.17;;;;;;;15.89;74.22;96736.72;6117935;29;20048;-69
2022/09/17 14:00:55;;;;;;;3.55;3.00;;;;;;;15.67;75.00;96737.75;6102749;29;20059;-69
2022/09/17 14:03:59;;;;;;;2.83;2.50;;;;;;;15.60;75.35;96735.78;6102899;29;20048;-69
2022/09/17 14:07:20;;;;;;;5.65;4.55;;;;;;;15.61;76.00;96732.16;6102402;29;20076;-69
2022/09/17 14:10:36;;;;;;;4.85;3.97;;;;;;;15.51;76.45;96737.41;6102736;29;20474;-69
2022/09/17 14:13:43;;;;;;;3.45;2.80;;;;;;;15.52;76.45;96738.25;6102618;29;20052;-71
2022/09/17 14:16:49;;;;;;;3.25;2.70;;;;;;;15.38;77.20;96726.19;6102680;29;20066;-69
2022/09/17 14:19:53;;;;;;;2.85;2.53;;;;;;;15.29;77.25;96734.94;6102772;29;20040;-69
2022/09/17 14:23:03;;;;;;;2.30;2.05;;;;;;;15.45;76.60;96728.16;6102917;29;20143;-69
2022/09/17 14:26:11;;;;;;;2.83;2.45;;;;;;;15.43;76.56;96740.75;6102688;29;20048;-68
2022/09/17 14:29:34;;;;;;;2.00;1.80;;;;;;;15.55;75.88;96743.28;6102740;29;20518;-69
2022/09/17 14:33:04;;;;;;;2.67;2.38;;;;;;;15.58;75.35;96738.56;6102193;29;20127;-69
2022/09/17 14:36:15;;;;;;;2.03;1.80;;;;;;;15.62;75.04;96734.66;6101886;29;20146;-69
2022/09/17 14:39:34;;;;;;;3.75;2.35;;;;;;;15.45;75.34;96732.63;6102283;29;20058;-69
2022/09/17 14:42:38;;;;;;;3.60;2.13;;;;;;;15.48;75.21;96742.97;6102055;29;20048;-68
2022/09/17 14:45:43;;;;;;;2.33;2.13;;;;;;;15.46;75.22;96743.13;6101999;29;20162;-69
2022/09/17 14:48:47;;;;;;;1.60;1.50;;;;;;;15.54;74.89;96750.41;6101932;29;20048;-69
2022/09/17 14:51:53;;;;;;;1.80;1.70;;;;;;;15.56;74.55;96761.72;6101973;29;20044;-69
2022/09/17 14:55:20;;;;;;;2.60;2.10;;;;;;;15.55;74.10;96760.03;6101624;29;20517;-71